Time;durP1;ratioP1;P1;durP2;ratioP2;P2;SDS_P1;SDS_P2;PMS_P1;PMS_P2;Temp;Humidity;BMP_temperature;BMP_pressure;BME280_temperature;BME280_humidity;BME280_pressure;Samples;Min_cycle;Max_cycle;Signal;HPM_P1;HPM_P2
2021/06/23 00:00:27;;;;;;;24.13;18.38;;;17.70;99.90;;;;;;5051736;28;20041;-69
2021/06/23 00:02:55;;;;;;;24.35;18.77;;;17.70;99.90;;;;;;5037195;28;20049;-68
2021/06/23 00:05:24;;;;;;;24.67;19.00;;;17.70;99.90;;;;;;5050599;28;20056;-68
2021/06/23 00:07:52;;;;;;;24.63;20.20;;;17.70;99.90;;;;;;5034506;28;20865;-68
2021/06/23 00:10:21;;;;;;;23.45;19.75;;;17.70;99.90;;;;;;5051649;28;20107;-68
2021/06/23 00:12:50;;;;;;;25.70;20.83;;;17.70;99.90;;;;;;5046587;28;20061;-69
2021/06/23 00:15:19;;;;;;;26.25;20.67;;;17.70;99.90;;;;;;5045082;28;20049;-69
2021/06/23 00:17:47;;;;;;;26.15;20.45;;;17.50;99.90;;;;;;5025736;28;20182;-67
2021/06/23 00:20:15;;;;;;;25.85;21.33;;;17.40;99.90;;;;;;5042338;28;20052;-68
2021/06/23 00:22:43;;;;;;;30.08;21.35;;;17.40;99.90;;;;;;5049565;28;20060;-68
2021/06/23 00:25:11;;;;;;;26.23;20.85;;;17.40;99.90;;;;;;5051063;28;20052;-68
2021/06/23 00:27:39;;;;;;;27.20;20.40;;;17.30;99.90;;;;;;5051066;28;20052;-68
2021/06/23 00:30:10;;;;;;;25.98;19.95;;;17.30;99.90;;;;;;5052574;28;20526;-68
2021/06/23 00:32:41;;;;;;;23.37;20.30;;;17.40;99.90;;;;;;5051630;28;20048;-68
2021/06/23 00:35:09;;;;;;;26.00;20.40;;;17.30;99.90;;;;;;5044574;28;20104;-68
2021/06/23 00:37:37;;;;;;;26.60;20.33;;;17.30;99.90;;;;;;5049781;28;20037;-68
2021/06/23 00:40:05;;;;;;;27.80;20.73;;;17.30;99.90;;;;;;5046693;28;20056;-68
2021/06/23 00:42:36;;;;;;;29.80;20.50;;;17.30;99.90;;;;;;5047406;28;20085;-68
2021/06/23 00:45:06;;;;;;;29.58;20.95;;;17.40;99.90;;;;;;5048894;28;20041;-68
2021/06/23 00:47:34;;;;;;;27.30;21.80;;;17.30;99.90;;;;;;5033403;28;20450;-68
2021/06/23 00:50:06;;;;;;;23.88;20.40;;;17.30;99.90;;;;;;5048547;28;20041;-68
2021/06/23 00:52:46;;;;;;;26.58;20.83;;;17.30;99.90;;;;;;5050972;28;20450;-69
2021/06/23 00:55:24;;;;;;;25.27;20.67;;;17.30;99.90;;;;;;5047716;28;20041;-69
2021/06/23 00:57:54;;;;;;;26.25;20.30;;;17.20;99.90;;;;;;5049768;28;20049;-68
2021/06/23 01:00:25;;;;;;;26.45;20.60;;;17.20;99.90;;;;;;5049011;28;20474;-69
2021/06/23 01:02:58;;;;;;;26.58;21.48;;;17.30;99.90;;;;;;5033405;28;20045;-69
2021/06/23 01:05:27;;;;;;;25.63;20.23;;;17.30;99.90;;;;;;5065199;28;20052;-68
2021/06/23 01:07:55;;;;;;;26.98;21.42;;;17.20;99.90;;;;;;5049190;28;20044;-68
2021/06/23 01:10:23;;;;;;;26.98;21.65;;;17.20;99.90;;;;;;5049936;28;20049;-69
2021/06/23 01:13:13;;;;;;;28.08;21.85;;;17.20;99.90;;;;;;5048866;28;20090;-69
2021/06/23 01:15:42;;;;;;;28.77;22.50;;;17.30;99.90;;;;;;5038587;28;20487;-69
2021/06/23 01:18:11;;;;;;;27.80;22.02;;;17.20;99.90;;;;;;5049659;28;20085;-69
2021/06/23 01:20:44;;;;;;;28.42;21.38;;;17.20;99.90;;;;;;5030418;28;20140;-68
2021/06/23 01:23:13;;;;;;;25.92;20.60;;;17.30;99.90;;;;;;5044490;28;20129;-68
2021/06/23 01:25:43;;;;;;;29.88;22.77;;;17.30;99.90;;;;;;5049045;28;20041;-68
2021/06/23 01:28:10;;;;;;;26.33;22.50;;;17.20;99.90;;;;;;5054097;28;20099;-68
2021/06/23 01:30:57;;;;;;;27.98;22.75;;;17.20;99.90;;;;;;5068073;28;20116;-68
2021/06/23 01:33:30;;;;;;;28.00;22.30;;;17.20;99.90;;;;;;5051485;28;20095;-68
2021/06/23 01:35:58;;;;;;;29.40;22.85;;;17.20;99.90;;;;;;5055231;28;20053;-68
2021/06/23 01:38:27;;;;;;;28.73;22.20;;;17.10;99.90;;;;;;5068571;28;20041;-68
2021/06/23 01:40:56;;;;;;;28.73;23.42;;;17.00;99.90;;;;;;5070348;28;20111;-69
2021/06/23 01:43:24;;;;;;;28.17;22.52;;;17.00;99.90;;;;;;5052623;28;20045;-69
2021/06/23 01:45:52;;;;;;;30.33;22.90;;;17.00;99.90;;;;;;5054051;28;20491;-69
2021/06/23 01:48:22;;;;;;;29.40;22.75;;;17.00;99.90;;;;;;5048775;28;20145;-69
2021/06/23 01:50:57;;;;;;;28.73;23.15;;;17.00;99.90;;;;;;5048742;28;20055;-69
2021/06/23 01:53:33;;;;;;;31.48;24.27;;;17.00;99.90;;;;;;5069996;28;20503;-69
2021/06/23 01:56:02;;;;;;;33.45;26.27;;;16.90;99.90;;;;;;5052704;28;20044;-68
2021/06/23 01:58:39;;;;;;;33.63;25.08;;;16.80;99.90;;;;;;5052532;28;20056;-69
2021/06/23 02:01:46;;;;;;;33.10;25.30;;;16.70;99.90;;;;;;5049272;28;20144;-69
2021/06/23 02:04:48;;;;;;;33.00;24.70;;;16.60;99.90;;;;;;5037865;28;20048;-68
2021/06/23 02:07:54;;;;;;;34.22;25.00;;;16.60;99.90;;;;;;5067430;28;20037;-68
2021/06/23 02:11:22;;;;;;;31.83;24.27;;;16.60;99.90;;;;;;5040364;28;20132;-68
2021/06/23 02:14:25;;;;;;;32.97;23.77;;;16.60;99.90;;;;;;5011979;28;20056;-68
2021/06/23 02:17:17;;;;;;;36.13;25.65;;;16.70;99.90;;;;;;4996899;28;20042;-69
2021/06/23 02:19:56;;;;;;;36.17;27.05;;;16.70;99.90;;;;;;4975738;28;20062;-69
2021/06/23 02:22:34;;;;;;;36.15;25.23;;;16.70;99.90;;;;;;4985545;28;20505;-69
2021/06/23 02:25:13;;;;;;;36.42;27.95;;;16.60;99.90;;;;;;4994105;28;20485;-69
2021/06/23 02:28:05;;;;;;;38.13;27.05;;;16.60;99.90;;;;;;4986439;28;20539;-69
2021/06/23 02:30:35;;;;;;;36.10;27.15;;;16.50;99.90;;;;;;4994947;28;20069;-69
2021/06/23 02:33:06;;;;;;;33.78;24.67;;;16.50;99.90;;;;;;4995061;28;20049;-68
2021/06/23 02:35:39;;;;;;;35.28;26.40;;;16.40;99.90;;;;;;5007901;28;20515;-68
2021/06/23 02:38:22;;;;;;;35.00;26.10;;;16.50;99.90;;;;;;5009302;28;20136;-68
2021/06/23 02:40:52;;;;;;;37.03;27.20;;;16.50;99.90;;;;;;4995555;28;20065;-68
2021/06/23 02:43:20;;;;;;;38.53;28.67;;;16.50;99.90;;;;;;5010706;28;20546;-68
2021/06/23 02:45:48;;;;;;;38.25;28.42;;;16.50;99.90;;;;;;5009795;28;20045;-69
2021/06/23 02:48:20;;;;;;;38.15;28.30;;;16.40;99.90;;;;;;5012048;28;20057;-69
2021/06/23 02:51:20;;;;;;;36.47;26.30;;;16.40;99.90;;;;;;5047882;28;20530;-69
2021/06/23 02:53:53;;;;;;;36.53;26.35;;;16.40;99.90;;;;;;5050641;28;20049;-69
2021/06/23 02:56:24;;;;;;;41.55;29.15;;;16.40;99.90;;;;;;5063588;28;20407;-68
2021/06/23 02:58:51;;;;;;;38.25;27.30;;;16.50;99.90;;;;;;5043110;28;20045;-68
2021/06/23 03:01:20;;;;;;;33.83;26.02;;;16.40;99.90;;;;;;5067628;28;20041;-68
2021/06/23 03:03:53;;;;;;;36.90;26.63;;;16.40;99.90;;;;;;5067284;28;20052;-69
2021/06/23 03:06:27;;;;;;;37.08;27.15;;;16.50;99.90;;;;;;5052008;28;20152;-69
2021/06/23 03:08:58;;;;;;;34.80;25.58;;;16.50;99.90;;;;;;5053178;28;20045;-69
2021/06/23 03:11:44;;;;;;;32.17;25.10;;;16.50;99.90;;;;;;5052876;28;20057;-69
2021/06/23 03:14:17;;;;;;;34.15;26.38;;;16.60;99.90;;;;;;5051096;28;20122;-69
2021/06/23 03:16:48;;;;;;;39.95;26.77;;;16.60;99.90;;;;;;5051395;28;20119;-69
2021/06/23 03:19:16;;;;;;;37.63;27.27;;;16.70;99.90;;;;;;5051905;28;20045;-69
2021/06/23 03:21:46;;;;;;;36.28;27.42;;;16.70;99.90;;;;;;5050532;28;20098;-68
2021/06/23 03:24:15;;;;;;;32.72;25.30;;;16.70;99.90;;;;;;5066959;28;20053;-69
2021/06/23 03:26:46;;;;;;;35.33;25.25;;;16.70;99.90;;;;;;5041901;28;20076;-69
2021/06/23 03:29:25;;;;;;;38.28;26.95;;;16.80;99.90;;;;;;5063033;28;20123;-69
2021/06/23 03:31:53;;;;;;;43.30;28.75;;;16.80;99.90;;;;;;5047861;28;20045;-69
2021/06/23 03:34:24;;;;;;;40.60;28.80;;;16.80;99.90;;;;;;5050000;28;20041;-68
2021/06/23 03:37:10;;;;;;;45.63;30.67;;;16.80;99.90;;;;;;5036753;28;20053;-68
2021/06/23 03:39:41;;;;;;;38.58;28.80;;;16.80;99.90;;;;;;5044846;28;20048;-69
2021/06/23 03:42:09;;;;;;;32.20;24.90;;;16.80;99.90;;;;;;5067914;28;20102;-69
2021/06/23 03:44:39;;;;;;;34.92;25.52;;;16.90;99.90;;;;;;5047794;28;20068;-68
2021/06/23 03:47:12;;;;;;;35.15;24.95;;;16.90;99.90;;;;;;5055304;28;20416;-68
2021/06/23 03:49:40;;;;;;;30.38;23.75;;;16.90;99.90;;;;;;5047883;28;20467;-68
2021/06/23 03:52:07;;;;;;;33.40;23.45;;;17.00;99.90;;;;;;5050290;28;20137;-69
2021/06/23 03:54:35;;;;;;;31.95;25.15;;;17.00;99.90;;;;;;5050793;28;21228;-69
2021/06/23 03:57:03;;;;;;;36.58;26.33;;;17.00;99.90;;;;;;5050874;28;20036;-69
2021/06/23 03:59:34;;;;;;;35.30;26.80;;;17.00;99.90;;;;;;5049061;28;20053;-69
2021/06/23 04:02:02;;;;;;;34.45;24.67;;;17.00;99.90;;;;;;5050027;28;20048;-67
2021/06/23 04:04:30;;;;;;;34.58;26.50;;;17.00;99.90;;;;;;5066477;28;20041;-67
2021/06/23 04:07:15;;;;;;;35.63;27.15;;;16.90;99.90;;;;;;5051023;28;20053;-68
2021/06/23 04:09:43;;;;;;;39.00;26.92;;;16.90;99.90;;;;;;5067506;28;20041;-67
2021/06/23 04:12:22;;;;;;;38.15;28.42;;;16.80;99.90;;;;;;5050691;28;20464;-67
2021/06/23 04:14:51;;;;;;;38.92;27.38;;;16.70;99.90;;;;;;5051749;28;20045;-68
2021/06/23 04:17:18;;;;;;;35.30;25.13;;;16.60;99.90;;;;;;5051001;28;20441;-68
2021/06/23 04:19:47;;;;;;;37.35;27.90;;;16.60;99.90;;;;;;5054806;28;20052;-68
2021/06/23 04:22:30;;;;;;;33.60;25.85;;;16.70;99.90;;;;;;5050114;28;20414;-67
2021/06/23 04:25:09;;;;;;;33.20;25.73;;;16.70;99.90;;;;;;5048922;28;20045;-68
2021/06/23 04:27:38;;;;;;;30.80;23.38;;;16.70;99.90;;;;;;5048994;28;20048;-68
2021/06/23 04:30:08;;;;;;;32.25;24.20;;;16.80;99.90;;;;;;5048020;28;20053;-68
2021/06/23 04:32:35;;;;;;;35.10;25.65;;;16.90;99.90;;;;;;5049370;28;20404;-68
2021/06/23 04:35:23;;;;;;;38.65;27.92;;;17.00;99.90;;;;;;5046481;28;20049;-68
2021/06/23 04:37:51;;;;;;;34.78;26.65;;;17.10;99.90;;;;;;5049518;28;20418;-67
2021/06/23 04:40:19;;;;;;;36.50;25.33;;;17.20;99.90;;;;;;5066915;28;20072;-68
2021/06/23 04:42:50;;;;;;;37.50;27.35;;;17.30;99.90;;;;;;5049512;28;20052;-68
2021/06/23 04:45:18;;;;;;;30.13;23.88;;;17.40;99.90;;;;;;5050952;28;20041;-68
2021/06/23 04:47:58;;;;;;;32.65;23.00;;;17.50;99.90;;;;;;5066795;28;20048;-68
2021/06/23 04:50:27;;;;;;;33.80;25.88;;;17.50;99.90;;;;;;5033219;28;20492;-69
2021/06/23 04:52:57;;;;;;;34.75;26.63;;;17.60;99.90;;;;;;5047214;28;20135;-68
2021/06/23 04:55:24;;;;;;;36.35;28.00;;;17.60;99.90;;;;;;5051406;28;20049;-68
2021/06/23 04:58:08;;;;;;;37.53;27.45;;;17.60;99.90;;;;;;5052499;28;20048;-68
2021/06/23 05:00:36;;;;;;;34.20;25.52;;;17.40;99.90;;;;;;5049687;28;20049;-68
2021/06/23 05:03:07;;;;;;;35.22;25.80;;;17.40;99.90;;;;;;5050393;28;20053;-68
2021/06/23 05:05:35;;;;;;;35.10;25.20;;;17.40;99.90;;;;;;5051583;28;20052;-68
2021/06/23 05:08:03;;;;;;;38.17;27.27;;;17.50;99.90;;;;;;5050896;28;20453;-68
2021/06/23 05:10:31;;;;;;;33.38;24.65;;;17.40;99.90;;;;;;5049657;28;20103;-68
2021/06/23 05:12:58;;;;;;;30.27;23.65;;;17.40;99.90;;;;;;5063696;28;20079;-68
2021/06/23 05:15:26;;;;;;;33.72;25.95;;;17.50;99.90;;;;;;5036040;28;20476;-68
2021/06/23 05:17:54;;;;;;;31.85;24.50;;;17.50;99.90;;;;;;5050523;28;20051;-68
2021/06/23 05:20:22;;;;;;;32.28;24.20;;;17.50;99.90;;;;;;5048224;28;20447;-68
2021/06/23 05:22:51;;;;;;;29.90;23.45;;;17.60;99.90;;;;;;5036301;28;20449;-68
2021/06/23 05:25:20;;;;;;;29.92;23.55;;;17.60;99.90;;;;;;5050926;28;20468;-68
2021/06/23 05:27:48;;;;;;;26.92;21.15;;;17.80;99.90;;;;;;5051443;28;20099;-68
2021/06/23 05:30:16;;;;;;;29.88;23.42;;;17.80;99.90;;;;;;5059000;28;20041;-67
2021/06/23 05:32:44;;;;;;;33.03;24.77;;;17.90;99.90;;;;;;5033713;28;20072;-69
2021/06/23 05:35:12;;;;;;;30.63;23.50;;;17.80;99.90;;;;;;5043505;28;20075;-69
2021/06/23 05:37:39;;;;;;;31.67;24.02;;;17.80;99.90;;;;;;5048100;28;20076;-69
2021/06/23 05:40:07;;;;;;;32.95;25.05;;;17.80;99.90;;;;;;5050063;28;20132;-68
2021/06/23 05:42:34;;;;;;;35.28;25.10;;;17.70;99.90;;;;;;5049690;28;20073;-68
2021/06/23 05:45:02;;;;;;;32.97;25.00;;;17.60;99.90;;;;;;5045532;28;20111;-68
2021/06/23 05:47:29;;;;;;;35.58;27.08;;;17.50;99.90;;;;;;5060770;28;20044;-68
2021/06/23 05:49:57;;;;;;;29.98;23.17;;;17.60;99.90;;;;;;5045354;28;20427;-68
2021/06/23 05:52:24;;;;;;;36.20;25.10;;;17.90;99.90;;;;;;5050970;28;20045;-66
2021/06/23 05:54:51;;;;;;;28.60;23.00;;;18.10;99.90;;;;;;5049588;28;20037;-68
2021/06/23 05:57:18;;;;;;;35.60;26.40;;;18.20;99.90;;;;;;5050773;28;20589;-68
2021/06/23 05:59:46;;;;;;;38.72;26.85;;;18.30;99.90;;;;;;5045101;28;20045;-69
2021/06/23 06:02:13;;;;;;;32.00;23.92;;;18.30;99.90;;;;;;5050659;28;20053;-69
2021/06/23 06:04:40;;;;;;;27.58;21.77;;;18.30;99.90;;;;;;5044551;28;20136;-68
2021/06/23 06:07:08;;;;;;;31.58;24.67;;;18.40;99.90;;;;;;5065181;28;20107;-69
2021/06/23 06:09:35;;;;;;;30.50;23.80;;;18.40;99.90;;;;;;5049857;28;20477;-68
2021/06/23 06:12:03;;;;;;;32.50;23.85;;;18.50;99.90;;;;;;5046421;28;20044;-68
2021/06/23 06:14:30;;;;;;;33.42;24.80;;;18.50;99.90;;;;;;5068901;28;20073;-68
2021/06/23 06:16:59;;;;;;;32.88;24.77;;;18.60;99.90;;;;;;5053673;28;20045;-68
2021/06/23 06:19:27;;;;;;;30.00;22.92;;;18.60;99.90;;;;;;5052325;28;20053;-68
2021/06/23 06:21:54;;;;;;;30.50;24.13;;;18.60;99.90;;;;;;5052952;28;20053;-68
2021/06/23 06:24:22;;;;;;;37.03;26.02;;;18.40;99.90;;;;;;5049388;28;20081;-68
2021/06/23 06:26:50;;;;;;;29.75;24.13;;;18.40;99.90;;;;;;5052640;28;20103;-68
2021/06/23 06:29:17;;;;;;;33.15;24.95;;;18.40;99.90;;;;;;5052122;28;20056;-68
2021/06/23 06:31:44;;;;;;;31.98;23.70;;;18.40;99.90;;;;;;5043101;28;20133;-68
2021/06/23 06:34:12;;;;;;;36.63;26.95;;;18.30;99.90;;;;;;5050939;28;20048;-68
2021/06/23 06:36:43;;;;;;;32.13;24.90;;;18.40;99.90;;;;;;5052732;28;20045;-68
2021/06/23 06:39:11;;;;;;;34.53;27.10;;;18.30;99.90;;;;;;5050753;28;20048;-67
2021/06/23 06:41:38;;;;;;;38.20;28.20;;;18.30;99.90;;;;;;5052287;28;20466;-68
2021/06/23 06:44:06;;;;;;;38.17;27.52;;;18.30;99.90;;;;;;5048113;28;20053;-68
2021/06/23 06:46:36;;;;;;;38.38;28.23;;;18.30;99.90;;;;;;5052658;28;20119;-68
2021/06/23 06:49:04;;;;;;;36.13;25.67;;;18.50;99.90;;;;;;5051534;28;20067;-68
2021/06/23 06:51:32;;;;;;;33.50;26.48;;;18.50;99.90;;;;;;5034709;28;20487;-68
2021/06/23 06:54:01;;;;;;;33.80;26.33;;;19.00;99.90;;;;;;5053710;28;20527;-68
2021/06/23 06:56:28;;;;;;;34.72;24.55;;;19.40;99.90;;;;;;5051362;28;20111;-68
2021/06/23 06:58:55;;;;;;;33.45;25.70;;;19.60;99.90;;;;;;5063398;28;20463;-68
2021/06/23 07:01:23;;;;;;;33.53;25.50;;;19.70;99.90;;;;;;5049227;28;20063;-68
2021/06/23 07:03:50;;;;;;;35.97;26.42;;;19.50;99.90;;;;;;5039183;28;20059;-69
2021/06/23 07:06:17;;;;;;;32.13;24.27;;;19.50;99.90;;;;;;5050503;28;20138;-68
2021/06/23 07:08:45;;;;;;;29.77;23.52;;;19.60;99.90;;;;;;5051437;28;20127;-68
2021/06/23 07:11:19;;;;;;;29.88;23.48;;;19.80;99.90;;;;;;5046994;28;20100;-68
2021/06/23 07:13:47;;;;;;;32.92;25.15;;;20.20;99.90;;;;;;5038450;28;20079;-68
2021/06/23 07:16:17;;;;;;;33.05;25.10;;;20.50;99.90;;;;;;5050766;28;20079;-69
2021/06/23 07:18:45;;;;;;;29.08;23.48;;;20.90;99.90;;;;;;5041685;28;20446;-68
2021/06/23 07:21:17;;;;;;;32.75;23.83;;;21.20;99.90;;;;;;5068310;28;20083;-69
2021/06/23 07:23:46;;;;;;;29.45;21.23;;;21.50;99.90;;;;;;5046513;28;20064;-68
2021/06/23 07:26:14;;;;;;;26.77;21.15;;;21.80;99.90;;;;;;5065776;28;20445;-68
2021/06/23 07:28:52;;;;;;;31.40;24.23;;;22.20;99.90;;;;;;5051607;28;20156;-68
2021/06/23 07:31:53;;;;;;;29.33;22.27;;;22.40;99.90;;;;;;5047705;28;20049;-67
2021/06/23 07:34:21;;;;;;;23.55;19.58;;;22.60;99.90;;;;;;5045930;28;21579;-68
2021/06/23 07:36:52;;;;;;;27.35;22.20;;;23.00;99.90;;;;;;5054737;28;20057;-67
2021/06/23 07:39:19;;;;;;;28.45;21.52;;;23.40;99.90;;;;;;5048318;28;20171;-67
2021/06/23 07:41:49;;;;;;;28.52;21.98;;;23.70;99.90;;;;;;5048775;28;20491;-67
2021/06/23 07:44:21;;;;;;;25.00;20.23;;;23.70;99.90;;;;;;5052128;28;20181;-68
2021/06/23 07:49:17;;;;;;;28.05;22.35;;;23.80;99.90;;;;;;5046368;28;20045;-68
2021/06/23 07:54:46;;;;;;;28.88;21.85;;;23.40;99.90;;;;;;5037021;28;20081;-68
2021/06/23 08:10:46;;;;;;;28.88;24.02;;;21.70;99.90;;;;;;5049462;28;20110;-68
2021/06/23 08:13:15;;;;;;;29.60;23.27;;;21.50;99.90;;;;;;5048946;28;20127;-68
2021/06/23 08:15:47;;;;;;;32.03;24.38;;;21.50;99.90;;;;;;5048997;28;20048;-68
2021/06/23 08:18:16;;;;;;;29.80;24.05;;;21.60;99.90;;;;;;5048492;28;20053;-69
2021/06/23 08:20:43;;;;;;;31.40;24.80;;;21.70;99.90;;;;;;5050814;28;20455;-69
2021/06/23 08:23:10;;;;;;;30.33;24.10;;;21.80;99.90;;;;;;5066019;28;20255;-69
2021/06/23 08:25:39;;;;;;;26.67;21.45;;;21.90;99.90;;;;;;5049758;28;20049;-68
2021/06/23 08:28:06;;;;;;;28.63;23.80;;;22.10;99.90;;;;;;5048578;28;20056;-68
2021/06/23 08:30:33;;;;;;;24.20;20.67;;;22.40;99.90;;;;;;5049783;28;20127;-67
2021/06/23 08:33:01;;;;;;;27.48;22.20;;;22.90;99.90;;;;;;5049237;28;20053;-68
2021/06/23 08:35:29;;;;;;;25.75;21.58;;;23.20;99.90;;;;;;5048979;28;20408;-68
2021/06/23 08:37:56;;;;;;;26.35;21.58;;;23.50;99.90;;;;;;5048879;28;20127;-68
2021/06/23 08:40:24;;;;;;;29.70;22.00;;;23.60;99.90;;;;;;5048481;28;20132;-68
2021/06/23 08:42:52;;;;;;;23.52;21.02;;;23.80;99.90;;;;;;5048788;28;20049;-67
2021/06/23 08:45:20;;;;;;;25.42;20.30;;;24.10;99.90;;;;;;5046234;28;20090;-67
2021/06/23 08:47:49;;;;;;;24.42;20.67;;;24.30;99.90;;;;;;5036176;28;20053;-68
2021/06/23 08:50:20;;;;;;;22.17;19.23;;;24.50;99.90;;;;;;5049638;28;20059;-68
2021/06/23 08:52:48;;;;;;;22.73;20.25;;;24.80;99.90;;;;;;5065409;28;20037;-68
2021/06/23 08:55:20;;;;;;;22.30;18.33;;;25.20;99.90;;;;;;5053885;28;20098;-67
2021/06/23 08:57:49;;;;;;;21.88;18.35;;;25.50;99.90;;;;;;5046994;28;20053;-68
2021/06/23 09:00:19;;;;;;;23.52;19.23;;;25.80;99.90;;;;;;5049535;28;20087;-69
2021/06/23 09:02:47;;;;;;;22.88;19.52;;;26.10;99.90;;;;;;5044289;28;20118;-67
2021/06/23 09:05:16;;;;;;;20.67;18.02;;;26.20;99.90;;;;;;5050937;28;20082;-68
2021/06/23 09:07:53;;;;;;;21.80;18.23;;;26.20;99.90;;;;;;5049954;28;20584;-69
2021/06/23 09:10:24;;;;;;;24.23;19.15;;;26.80;99.90;;;;;;5046423;28;20065;-68
2021/06/23 09:13:14;;;;;;;25.02;20.08;;;27.00;99.90;;;;;;5041336;28;20049;-68
2021/06/23 09:15:50;;;;;;;20.30;18.15;;;27.00;99.90;;;;;;5040113;28;20049;-69
2021/06/23 09:18:24;;;;;;;21.35;19.05;;;27.10;99.90;;;;;;5045785;28;20056;-68
2021/06/23 09:20:58;;;;;;;21.73;18.60;;;27.20;99.90;;;;;;5031415;28;20079;-68
2021/06/23 09:23:44;;;;;;;21.17;17.30;;;27.10;99.90;;;;;;5063941;28;20132;-68
2021/06/23 09:26:18;;;;;;;22.10;18.15;;;27.40;99.90;;;;;;5065633;28;20052;-68
2021/06/23 09:29:06;;;;;;;25.13;19.55;;;27.70;99.90;;;;;;5049724;28;20140;-68
2021/06/23 09:31:52;;;;;;;19.80;17.60;;;27.70;99.90;;;;;;5050489;28;20478;-68
2021/06/23 09:34:21;;;;;;;19.65;17.35;;;27.50;99.90;;;;;;5047810;28;20131;-69
2021/06/23 09:36:49;;;;;;;17.67;15.57;;;27.50;99.90;;;;;;5048749;28;20049;-69
2021/06/23 09:39:21;;;;;;;22.80;18.73;;;27.70;99.90;;;;;;5045991;28;20519;-69
2021/06/23 09:41:57;;;;;;;24.70;20.02;;;27.70;99.90;;;;;;5056855;28;20512;-69
2021/06/23 09:44:26;;;;;;;26.30;22.98;;;27.70;99.90;;;;;;5062732;28;20057;-69
2021/06/23 09:46:54;;;;;;;26.17;21.52;;;27.20;99.90;;;;;;5067647;28;20114;-69
2021/06/23 09:49:24;;;;;;;24.63;21.08;;;26.60;99.90;;;;;;5053619;28;20323;-69
2021/06/23 09:51:54;;;;;;;23.40;19.73;;;26.50;99.90;;;;;;5052631;28;20465;-69
2021/06/23 09:54:28;;;;;;;22.98;19.95;;;26.40;99.90;;;;;;5034483;28;20045;-69
2021/06/23 09:57:03;;;;;;;21.20;17.92;;;25.80;99.90;;;;;;5052973;28;20128;-69
2021/06/23 09:59:38;;;;;;;23.70;20.10;;;25.60;99.90;;;;;;5053849;28;20115;-68
2021/06/23 10:02:26;;;;;;;25.45;20.67;;;25.70;99.90;;;;;;5035895;28;20072;-69
2021/06/23 10:04:55;;;;;;;19.70;16.42;;;25.90;99.90;;;;;;5053529;28;20049;-68
2021/06/23 10:07:42;;;;;;;27.35;21.60;;;26.10;99.90;;;;;;5066583;28;20056;-68
2021/06/23 10:10:11;;;;;;;17.52;15.52;;;26.20;99.90;;;;;;5053345;28;20485;-68
2021/06/23 10:12:39;;;;;;;21.70;17.80;;;26.30;99.90;;;;;;5034617;28;20041;-68
2021/06/23 10:15:07;;;;;;;19.83;16.77;;;26.50;99.90;;;;;;5069265;28;20583;-69
2021/06/23 10:17:37;;;;;;;18.48;16.55;;;26.60;99.90;;;;;;5054188;28;20049;-69
2021/06/23 10:20:06;;;;;;;20.63;18.20;;;27.00;99.90;;;;;;5070060;28;20045;-68
2021/06/23 10:22:34;;;;;;;18.80;16.17;;;27.20;99.90;;;;;;5054199;28;20049;-68
2021/06/23 10:25:10;;;;;;;17.88;15.98;;;27.00;99.90;;;;;;5053570;28;20064;-68
2021/06/23 10:27:46;;;;;;;19.73;16.98;;;27.10;99.90;;;;;;5067506;28;20118;-68
2021/06/23 10:30:14;;;;;;;18.00;15.52;;;27.20;99.90;;;;;;5052884;28;20091;-68
2021/06/23 10:32:43;;;;;;;18.77;16.20;;;27.20;99.90;;;;;;5053034;28;20045;-67
2021/06/23 10:35:15;;;;;;;17.85;15.32;;;26.90;99.90;;;;;;5052443;28;20545;-67
2021/06/23 10:37:44;;;;;;;17.42;15.30;;;26.90;99.90;;;;;;5044911;28;20076;-69
2021/06/23 10:40:14;;;;;;;15.30;13.65;;;27.10;99.90;;;;;;5038684;28;20053;-69
2021/06/23 10:42:41;;;;;;;16.65;13.20;;;27.30;99.90;;;;;;5047729;28;20049;-69
2021/06/23 10:45:10;;;;;;;15.43;13.60;;;27.40;99.90;;;;;;5050086;28;20084;-69
2021/06/23 10:47:39;;;;;;;18.90;15.93;;;27.40;99.90;;;;;;5049640;28;20499;-69
2021/06/23 10:50:31;;;;;;;18.60;15.57;;;27.60;99.90;;;;;;5052290;28;20132;-69
2021/06/23 10:52:59;;;;;;;14.38;12.88;;;27.80;99.90;;;;;;5050273;28;20045;-69
2021/06/23 10:55:27;;;;;;;17.45;14.80;;;27.60;99.90;;;;;;5048142;28;20174;-68
2021/06/23 10:58:02;;;;;;;13.40;12.00;;;27.50;99.90;;;;;;5065954;28;20045;-68
2021/06/23 11:00:32;;;;;;;13.70;12.02;;;27.40;99.90;;;;;;5051128;28;20083;-68
2021/06/23 11:03:17;;;;;;;11.10;9.90;;;27.30;99.90;;;;;;5051416;28;20144;-68
2021/06/23 11:05:46;;;;;;;14.77;12.05;;;27.60;99.90;;;;;;5051788;28;20060;-69
2021/06/23 11:08:33;;;;;;;13.60;12.18;;;28.00;99.90;;;;;;5063555;28;20064;-69
2021/06/23 11:11:06;;;;;;;12.45;10.52;;;27.90;99.90;;;;;;5061297;28;20115;-69
2021/06/23 11:13:43;;;;;;;11.80;10.35;;;28.00;99.90;;;;;;5040004;28;20045;-67
2021/06/23 11:16:30;;;;;;;11.43;9.15;;;27.80;99.90;;;;;;5047752;28;20060;-68
2021/06/23 11:19:09;;;;;;;13.50;10.48;;;27.60;99.90;;;;;;5053324;28;20119;-69
2021/06/23 11:21:37;;;;;;;11.20;10.00;;;27.40;99.90;;;;;;5051653;28;20045;-69
2021/06/23 11:24:17;;;;;;;10.25;9.15;;;27.90;99.90;;;;;;5052644;28;20106;-69
2021/06/23 11:26:48;;;;;;;10.30;8.85;;;28.70;99.90;;;;;;5052491;28;20067;-69
2021/06/23 11:29:15;;;;;;;11.80;9.85;;;28.80;99.90;;;;;;5048459;28;20073;-69
2021/06/23 11:31:51;;;;;;;10.35;9.23;;;28.80;99.90;;;;;;5050479;28;20140;-69
2021/06/23 11:34:43;;;;;;;11.60;10.40;;;28.50;99.90;;;;;;5047701;28;20041;-69
2021/06/23 11:37:12;;;;;;;12.13;10.48;;;28.10;99.90;;;;;;5065992;28;20041;-71
2021/06/23 11:39:42;;;;;;;13.10;10.60;;;28.40;99.90;;;;;;5038878;28;20129;-69
2021/06/23 11:42:12;;;;;;;10.02;9.02;;;28.40;99.90;;;;;;5051214;28;20045;-69
2021/06/23 11:44:42;;;;;;;9.77;8.77;;;28.50;99.90;;;;;;5051741;28;20442;-69
2021/06/23 11:47:10;;;;;;;10.15;9.05;;;28.80;99.90;;;;;;5053308;28;20064;-68
2021/06/23 11:49:46;;;;;;;8.43;7.53;;;29.00;99.90;;;;;;5062611;28;20044;-69
2021/06/23 11:52:14;;;;;;;10.32;7.30;;;29.00;99.90;;;;;;5052904;28;20045;-69
2021/06/23 11:54:41;;;;;;;8.95;7.10;;;29.40;99.90;;;;;;5049894;28;20041;-69
2021/06/23 11:57:09;;;;;;;8.95;7.25;;;30.00;99.90;;;;;;5044497;28;20057;-69
2021/06/23 11:59:36;;;;;;;8.35;7.07;;;30.50;99.90;;;;;;5048504;28;20464;-69
2021/06/23 12:02:04;;;;;;;8.20;7.18;;;30.90;99.90;;;;;;5051173;28;20057;-69
2021/06/23 12:04:33;;;;;;;9.55;7.80;;;31.40;99.90;;;;;;5033705;28;20140;-68
2021/06/23 12:07:01;;;;;;;10.35;7.38;;;32.00;99.90;;;;;;5066852;28;20140;-68
2021/06/23 12:09:28;;;;;;;8.10;6.93;;;32.30;99.90;;;;;;5044999;28;20128;-69
2021/06/23 12:11:55;;;;;;;7.78;6.97;;;32.40;99.90;;;;;;5039508;28;20476;-69
2021/06/23 12:14:23;;;;;;;7.85;7.05;;;32.20;99.90;;;;;;5035488;28;20110;-69
2021/06/23 12:16:50;;;;;;;7.70;6.45;;;32.50;99.90;;;;;;5033546;28;20439;-69
2021/06/23 12:19:17;;;;;;;12.63;9.25;;;32.90;99.90;;;;;;5031044;28;20045;-68
2021/06/23 12:21:44;;;;;;;9.35;6.85;;;33.30;99.90;;;;;;5035548;28;20045;-69
2021/06/23 12:24:12;;;;;;;8.27;6.82;;;33.70;99.90;;;;;;5036891;28;20060;-68
2021/06/23 12:26:39;;;;;;;6.80;6.10;;;33.30;99.90;;;;;;5044473;28;20048;-68
2021/06/23 12:29:06;;;;;;;7.05;6.35;;;33.40;99.90;;;;;;5050658;28;20053;-68
2021/06/23 12:31:34;;;;;;;7.45;5.93;;;33.20;99.90;;;;;;5051146;28;20500;-69
2021/06/23 12:34:07;;;;;;;6.65;5.05;;;33.30;99.90;;;;;;5049750;28;20048;-68
2021/06/23 12:36:36;;;;;;;6.50;5.22;;;33.40;99.90;;;;;;5051776;28;20076;-68
2021/06/23 12:39:04;;;;;;;7.22;4.78;;;33.90;99.90;;;;;;5049350;28;20056;-68
2021/06/23 12:41:31;;;;;;;5.22;4.10;;;34.60;99.90;;;;;;5052505;28;20077;-69
2021/06/23 12:43:58;;;;;;;5.80;4.45;;;34.80;99.70;;;;;;5051009;28;20049;-68
2021/06/23 12:46:25;;;;;;;5.68;3.88;;;35.30;97.90;;;;;;5050512;28;20107;-69
2021/06/23 12:48:53;;;;;;;7.47;4.68;;;35.70;97.60;;;;;;5050436;28;20388;-68
2021/06/23 12:51:21;;;;;;;5.22;4.10;;;36.20;95.90;;;;;;5031551;28;20072;-68
2021/06/23 12:53:48;;;;;;;5.88;4.15;;;36.10;95.00;;;;;;5049216;28;20478;-69
2021/06/23 12:56:15;;;;;;;6.95;4.00;;;36.20;94.10;;;;;;5047723;28;20526;-69
2021/06/23 12:58:43;;;;;;;4.25;3.40;;;35.90;93.20;;;;;;5044010;28;20451;-68
2021/06/23 13:01:10;;;;;;;5.30;4.13;;;35.70;93.50;;;;;;5042824;28;20084;-68
2021/06/23 13:03:38;;;;;;;5.00;3.35;;;35.90;93.40;;;;;;5050582;28;20068;-68
2021/06/23 13:06:07;;;;;;;5.93;4.60;;;35.40;92.30;;;;;;5046748;28;20107;-68
2021/06/23 13:08:34;;;;;;;8.43;4.78;;;34.90;93.60;;;;;;5032003;28;20052;-68